Search for airport 
image banner adimage banner adimage banner ad
image banner ad

KLSN - Los Banos Muni

Located in Los Banos, United States

ICAO - LSN, IATA - LSN

Data provided by Airmate  

General information

Coordinates: N37°3'50" W120°52'11"
Elevation is 121 feet MSL.
Magnetic variation is 16° East
View others Airports in California

Operational data

Special qualification required
Current time UTC:
Current local time:
Weather at : KMCE - Merced Rgnl/Macready Field ( 40 km )
METAR: KMCE 231353Z AUTO 00000KT 10SM CLR 17/09 A2990 RMK AO2 SLP123 T01720089
TAF: KMCE 231132Z 2312/2412 VRB05KT P6SM SKC
View NOTAMs / SUP AIP / TFR affecting this airport [VIEW]
Communications frequencies: [VIEW]

Runways:

RWY identifierQFULength (ft)Width (ft)SurfaceLDA (ft)
14153°380175ASPH
32333°380175ASPH

Airport contact information

Address: Los Banos United States

Satellite view of KLSN